createdAt,value
2019-03-26T00:00:08.236Z,98792.70
2019-03-26T00:02:41.001Z,98800.16
2019-03-26T00:05:12.279Z,98791.28
2019-03-26T00:07:43.408Z,98786.32
2019-03-26T00:10:14.552Z,98778.36
2019-03-26T00:12:45.761Z,98777.60
2019-03-26T00:15:17.009Z,98780.98
2019-03-26T00:17:48.281Z,98779.34
2019-03-26T00:20:19.858Z,98776.27
2019-03-26T00:22:51.086Z,98776.97
2019-03-26T00:25:22.227Z,98780.67
2019-03-26T00:27:53.372Z,98773.48
2019-03-26T00:30:24.511Z,98771.77
2019-03-26T00:32:55.780Z,98768.83
2019-03-26T00:35:26.978Z,98772.50
2019-03-26T00:37:58.246Z,98760.89
2019-03-26T00:40:29.463Z,98759.42
2019-03-26T00:43:00.755Z,98760.82
2019-03-26T00:45:34.623Z,98763.10
2019-03-26T00:48:05.860Z,98760.73
2019-03-26T00:50:37.070Z,98765.56
2019-03-26T00:53:08.278Z,98779.98
2019-03-26T00:55:39.661Z,98763.84
2019-03-26T00:58:11.012Z,98765.08
2019-03-26T01:00:42.820Z,98771.63
2019-03-26T01:03:14.143Z,98777.36
2019-03-26T01:05:45.265Z,98783.25
2019-03-26T01:08:16.523Z,98783.18
2019-03-26T01:10:47.720Z,98779.61
2019-03-26T01:13:19.066Z,98777.30
2019-03-26T01:15:50.526Z,98773.98
2019-03-26T01:18:21.783Z,98777.85
2019-03-26T01:20:53.153Z,98788.69
2019-03-26T01:23:24.381Z,98784.64
2019-03-26T01:25:55.704Z,98783.47
2019-03-26T01:28:26.925Z,98793.61
2019-03-26T01:30:58.162Z,98793.55
2019-03-26T01:33:29.410Z,98795.18
2019-03-26T01:36:00.672Z,98802.54
2019-03-26T01:38:31.757Z,98799.06
2019-03-26T01:41:03.419Z,98793.88
2019-03-26T01:43:34.666Z,98788.69
2019-03-26T01:46:06.021Z,98783.00
2019-03-26T01:48:37.353Z,98783.19
2019-03-26T01:51:09.119Z,98785.27
2019-03-26T01:53:41.016Z,98791.55
2019-03-26T01:56:13.104Z,98788.47
2019-03-26T01:58:45.179Z,98805.78
2019-03-26T02:01:16.450Z,98801.05
2019-03-26T02:03:47.747Z,98801.89
2019-03-26T02:06:18.954Z,98812.16
2019-03-26T02:08:50.266Z,98807.39
2019-03-26T02:11:21.499Z,98815.66
2019-03-26T02:13:52.578Z,98823.25
2019-03-26T02:16:23.779Z,98830.88
2019-03-26T02:18:55.007Z,98827.59
2019-03-26T02:21:26.246Z,98827.61
2019-03-26T02:23:57.542Z,98832.18
2019-03-26T02:26:28.804Z,98830.95
2019-03-26T02:29:00.069Z,98825.61
2019-03-26T02:31:31.390Z,98830.42
2019-03-26T02:34:02.625Z,98819.20
2019-03-26T02:36:33.838Z,98822.41
2019-03-26T02:39:06.601Z,98826.53
2019-03-26T02:41:38.284Z,98829.78
2019-03-26T02:44:09.714Z,98830.80
2019-03-26T02:46:40.963Z,98839.96
2019-03-26T02:49:13.298Z,98837.52
2019-03-26T02:51:44.508Z,98839.23
2019-03-26T02:54:15.829Z,98846.06
2019-03-26T02:56:46.971Z,98849.00
2019-03-26T02:59:18.273Z,98855.98
2019-03-26T03:01:49.858Z,98852.63
2019-03-26T03:04:21.069Z,98857.78
2019-03-26T03:06:52.395Z,98855.14
2019-03-26T03:09:24.954Z,98857.66
2019-03-26T03:11:56.327Z,98851.03
2019-03-26T03:14:27.661Z,98849.23
2019-03-26T03:16:59.883Z,98848.78
2019-03-26T03:19:30.419Z,98853.58
2019-03-26T03:22:01.447Z,98857.59
2019-03-26T03:24:32.632Z,98858.23
2019-03-26T03:27:03.846Z,98865.83
2019-03-26T03:29:35.116Z,98865.78
2019-03-26T03:32:06.477Z,98871.55
2019-03-26T03:34:37.823Z,98875.14
2019-03-26T03:37:09.047Z,98873.69
2019-03-26T03:39:40.265Z,98871.25
2019-03-26T03:42:11.508Z,98872.92
2019-03-26T03:44:42.711Z,98876.55
2019-03-26T03:47:13.950Z,98872.63
2019-03-26T03:49:45.140Z,98872.47
2019-03-26T03:52:16.456Z,98876.62
2019-03-26T03:54:47.661Z,98883.15
2019-03-26T03:57:19.138Z,98885.94
2019-03-26T03:59:50.385Z,98885.41
2019-03-26T04:02:21.707Z,98885.44
2019-03-26T04:04:52.863Z,98887.13
2019-03-26T04:07:24.207Z,98884.75
2019-03-26T04:09:55.583Z,98891.55
2019-03-26T04:12:26.910Z,98890.29
2019-03-26T04:14:58.108Z,98892.97
2019-03-26T04:17:29.343Z,98898.45
2019-03-26T04:20:00.651Z,98896.78
2019-03-26T04:22:31.920Z,98897.84
2019-03-26T04:25:03.135Z,98896.39
2019-03-26T04:27:36.082Z,98888.68
2019-03-26T04:30:08.206Z,98889.61
2019-03-26T04:32:38.746Z,98889.22
2019-03-26T04:35:09.797Z,98887.70
2019-03-26T04:37:41.061Z,98879.30
2019-03-26T04:40:12.347Z,98876.75
2019-03-26T04:42:43.614Z,98878.00
2019-03-26T04:45:14.959Z,98890.86
2019-03-26T04:47:46.210Z,98891.23
2019-03-26T04:50:17.636Z,98899.71
2019-03-26T04:52:49.010Z,98902.69
2019-03-26T04:55:20.375Z,98905.17
2019-03-26T04:57:51.802Z,98914.67
2019-03-26T05:00:23.017Z,98914.33
2019-03-26T05:02:54.157Z,98910.52
2019-03-26T05:05:25.627Z,98914.52
2019-03-26T05:07:57.039Z,98916.70
2019-03-26T05:10:28.403Z,98923.19
2019-03-26T05:12:59.797Z,98924.39
2019-03-26T05:15:31.003Z,98922.08
2019-03-26T05:18:02.309Z,98921.09
2019-03-26T05:20:33.696Z,98923.30
2019-03-26T05:23:08.102Z,98919.37
2019-03-26T05:25:39.496Z,98919.70
2019-03-26T05:28:10.821Z,98914.88
2019-03-26T05:30:42.151Z,98916.45
2019-03-26T05:33:13.513Z,98911.25
2019-03-26T05:35:44.802Z,98914.68
2019-03-26T05:38:16.099Z,98918.28
2019-03-26T05:40:47.420Z,98928.26
2019-03-26T05:43:18.708Z,98921.20
2019-03-26T05:45:52.027Z,98928.06
2019-03-26T05:48:23.433Z,98920.88
2019-03-26T05:50:54.641Z,98930.16
2019-03-26T05:53:25.924Z,98934.37
2019-03-26T05:55:57.198Z,98938.83
2019-03-26T05:58:28.544Z,98942.59
2019-03-26T06:00:59.863Z,98937.80
2019-03-26T06:03:31.261Z,98941.39
2019-03-26T06:06:02.666Z,98937.65
2019-03-26T06:08:34.124Z,98940.36
2019-03-26T06:11:05.370Z,98940.79
2019-03-26T06:13:36.751Z,98944.20
2019-03-26T06:16:08.134Z,98952.48
2019-03-26T06:18:39.479Z,98952.52
2019-03-26T06:21:10.779Z,98961.20
2019-03-26T06:23:43.644Z,98962.92
2019-03-26T06:26:14.953Z,98964.33
2019-03-26T06:28:46.376Z,98946.47
2019-03-26T06:31:17.698Z,98940.03
2019-03-26T06:33:49.024Z,98949.15
2019-03-26T06:36:20.287Z,98949.83
2019-03-26T06:38:51.546Z,98948.20
2019-03-26T06:41:23.014Z,98955.21
2019-03-26T06:43:55.450Z,98955.73
2019-03-26T06:46:26.728Z,98965.67
2019-03-26T06:48:58.121Z,98962.25
2019-03-26T06:51:29.418Z,98965.98
2019-03-26T06:54:00.803Z,98967.15
2019-03-26T06:56:32.128Z,98974.05
2019-03-26T06:59:03.532Z,98976.74
2019-03-26T07:01:34.837Z,98974.81
2019-03-26T07:04:06.222Z,98987.80
2019-03-26T07:06:37.760Z,98987.80
2019-03-26T07:09:09.143Z,98994.83
2019-03-26T07:11:40.791Z,98997.10
2019-03-26T07:14:12.148Z,98997.18
2019-03-26T07:16:43.555Z,98997.96
2019-03-26T07:19:14.969Z,99016.16
2019-03-26T07:21:49.802Z,99008.64
2019-03-26T07:24:19.432Z,99008.53
2019-03-26T07:26:50.798Z,99009.18
2019-03-26T07:29:22.255Z,99007.84
2019-03-26T07:31:53.571Z,99009.13
2019-03-26T07:34:24.894Z,99008.92
2019-03-26T07:36:56.395Z,99007.05
2019-03-26T07:39:27.708Z,99005.45
2019-03-26T07:41:59.225Z,99000.75
2019-03-26T07:44:30.546Z,99002.03
2019-03-26T07:47:01.888Z,99007.59
2019-03-26T07:49:33.192Z,99005.48
2019-03-26T07:52:04.533Z,99008.88
2019-03-26T07:54:35.922Z,99002.80
2019-03-26T07:57:07.296Z,98994.98
2019-03-26T07:59:38.652Z,99005.01
2019-03-26T08:02:10.062Z,99004.95
2019-03-26T08:04:41.499Z,99002.80
2019-03-26T08:07:12.831Z,99001.77
2019-03-26T08:09:44.141Z,99008.40
2019-03-26T08:12:15.594Z,99006.40
2019-03-26T08:14:46.959Z,99004.72
2019-03-26T08:17:18.292Z,99013.20
2019-03-26T08:19:49.632Z,99015.41
2019-03-26T08:22:21.058Z,99019.02
2019-03-26T08:24:52.469Z,99023.47
2019-03-26T08:27:23.809Z,99027.23
2019-03-26T08:29:55.143Z,99028.61
2019-03-26T08:32:26.451Z,99028.05
2019-03-26T08:34:57.808Z,99026.38
2019-03-26T08:37:29.180Z,99026.97
2019-03-26T08:40:00.503Z,99035.55
2019-03-26T08:42:31.754Z,99043.65
2019-03-26T08:45:03.122Z,99041.34
2019-03-26T08:47:34.505Z,99048.06
2019-03-26T08:50:08.548Z,99040.39
2019-03-26T08:52:39.805Z,99042.02
2019-03-26T08:55:11.657Z,99050.69
2019-03-26T08:57:43.016Z,99054.61
2019-03-26T09:00:14.380Z,99056.16
2019-03-26T09:02:45.668Z,99054.78
2019-03-26T09:05:17.111Z,99058.52
2019-03-26T09:07:48.351Z,99060.83
2019-03-26T09:10:19.669Z,99060.89
2019-03-26T09:12:51.010Z,99061.74
2019-03-26T09:15:22.377Z,99058.21
2019-03-26T09:17:53.696Z,99060.61
2019-03-26T09:20:25.037Z,99071.36
2019-03-26T09:22:56.408Z,99062.30
2019-03-26T09:25:27.752Z,99062.17
2019-03-26T09:27:59.002Z,99051.95
2019-03-26T09:30:30.315Z,99046.98
2019-03-26T09:33:01.586Z,99057.45
2019-03-26T09:35:32.974Z,99053.30
2019-03-26T09:38:04.303Z,99053.02
2019-03-26T09:40:35.611Z,99051.59
2019-03-26T09:43:06.919Z,99058.80
2019-03-26T09:45:38.196Z,99059.41
2019-03-26T09:48:09.571Z,99065.66
2019-03-26T09:50:40.886Z,99070.91
2019-03-26T09:53:12.219Z,99064.00
2019-03-26T09:55:44.941Z,99057.96
2019-03-26T09:58:16.386Z,99052.47
2019-03-26T10:00:49.842Z,99054.17
2019-03-26T10:03:22.582Z,99043.17
2019-03-26T10:05:53.873Z,99045.00
2019-03-26T10:08:25.112Z,99043.27
2019-03-26T10:10:56.361Z,99046.84
2019-03-26T10:13:27.734Z,99042.34
2019-03-26T10:15:59.238Z,99045.81
2019-03-26T10:18:31.769Z,99038.45
2019-03-26T10:21:03.166Z,99035.50
2019-03-26T10:23:34.538Z,99034.89
2019-03-26T10:26:05.962Z,99037.92
2019-03-26T10:28:37.253Z,99030.87
2019-03-26T10:31:08.596Z,99032.01
2019-03-26T10:33:39.967Z,99032.29
2019-03-26T10:36:11.350Z,99025.98
2019-03-26T10:38:42.641Z,99032.52
2019-03-26T10:41:14.058Z,99028.40
2019-03-26T10:43:45.411Z,99025.70
2019-03-26T10:46:16.780Z,99018.34
2019-03-26T10:48:48.098Z,99017.34
2019-03-26T10:51:19.508Z,99021.70
2019-03-26T10:53:50.858Z,99010.30
2019-03-26T10:56:22.223Z,99014.07
2019-03-26T10:58:53.675Z,99026.73
2019-03-26T11:01:25.101Z,99021.33
2019-03-26T11:03:56.380Z,99022.10
2019-03-26T11:06:27.710Z,99014.97
2019-03-26T11:08:59.064Z,99022.65
2019-03-26T11:11:30.568Z,99020.03
2019-03-26T11:14:01.825Z,99021.14
2019-03-26T11:16:33.157Z,99021.46
2019-03-26T11:19:05.467Z,99030.84
2019-03-26T11:21:36.798Z,99029.98
2019-03-26T11:24:08.059Z,99032.94
2019-03-26T11:26:39.399Z,99034.23
2019-03-26T11:29:10.786Z,99029.71
2019-03-26T11:31:42.099Z,99025.80
2019-03-26T11:34:13.493Z,99021.54
2019-03-26T11:36:44.721Z,99013.52
2019-03-26T11:39:16.061Z,99022.66
2019-03-26T11:41:47.416Z,99019.65
2019-03-26T11:44:18.774Z,99024.14
2019-03-26T11:46:50.206Z,99028.39
2019-03-26T11:49:21.608Z,99031.59
2019-03-26T11:51:52.949Z,99027.72
2019-03-26T11:54:24.295Z,99022.05
2019-03-26T11:56:55.724Z,99021.99
2019-03-26T11:59:27.039Z,99007.55
2019-03-26T12:01:59.443Z,99010.25
2019-03-26T12:04:30.775Z,99011.14
2019-03-26T12:07:02.293Z,99002.16
2019-03-26T12:09:45.530Z,98989.55
2019-03-26T12:12:06.959Z,99004.34
2019-03-26T12:14:38.396Z,98993.07
2019-03-26T12:17:09.742Z,98997.77
2019-03-26T12:19:41.066Z,98997.98
2019-03-26T12:22:12.295Z,98994.27
2019-03-26T12:24:43.641Z,98988.23
2019-03-26T12:27:15.027Z,98994.58
2019-03-26T12:29:46.357Z,98992.61
2019-03-26T12:32:17.737Z,98988.98
2019-03-26T12:34:49.090Z,98989.67
2019-03-26T12:37:20.414Z,98992.12
2019-03-26T12:39:59.275Z,98994.93
2019-03-26T12:42:24.886Z,98996.96
2019-03-26T12:44:56.239Z,98994.43
2019-03-26T12:47:27.590Z,98996.58
2019-03-26T12:49:58.944Z,99006.02
2019-03-26T12:52:30.209Z,98999.62
2019-03-26T12:55:01.546Z,99000.98
2019-03-26T12:57:32.964Z,98996.73
2019-03-26T13:00:05.897Z,98994.20
2019-03-26T13:02:37.208Z,99006.36
2019-03-26T13:05:08.647Z,99002.13
2019-03-26T13:07:39.971Z,99007.81
2019-03-26T13:10:13.762Z,99003.28
2019-03-26T13:12:44.755Z,99006.30
2019-03-26T13:15:17.076Z,99004.44
2019-03-26T13:17:48.422Z,99004.25
2019-03-26T13:20:19.788Z,99000.36
2019-03-26T13:22:51.265Z,98999.62
2019-03-26T13:25:22.596Z,98992.60
2019-03-26T13:27:53.835Z,98987.36
2019-03-26T13:30:25.290Z,98990.67
2019-03-26T13:32:56.554Z,98989.63
2019-03-26T13:35:27.975Z,98986.97
2019-03-26T13:37:59.341Z,98991.86
2019-03-26T13:40:30.606Z,98990.38
2019-03-26T13:43:01.943Z,98982.06
2019-03-26T13:45:33.428Z,98988.19
2019-03-26T13:48:04.758Z,98993.14
2019-03-26T13:50:36.077Z,98983.38
2019-03-26T13:53:07.326Z,98989.13
2019-03-26T13:55:38.804Z,98985.59
2019-03-26T13:58:10.119Z,98986.23
2019-03-26T14:00:41.471Z,98990.57
2019-03-26T14:03:12.816Z,98982.95
2019-03-26T14:05:44.050Z,98990.73
2019-03-26T14:08:15.377Z,98982.48
2019-03-26T14:10:46.684Z,98987.73
2019-03-26T14:13:18.114Z,98987.73
2019-03-26T14:15:49.475Z,98984.14
2019-03-26T14:18:20.889Z,98987.02
2019-03-26T14:20:52.163Z,98984.10
2019-03-26T14:23:23.523Z,98984.30
2019-03-26T14:25:56.209Z,98984.65
2019-03-26T14:28:27.653Z,98979.81
2019-03-26T14:30:59.123Z,98981.83
2019-03-26T14:33:30.364Z,98990.04
2019-03-26T14:36:01.727Z,98991.89
2019-03-26T14:38:33.076Z,98998.17
2019-03-26T14:41:04.388Z,98997.05
2019-03-26T14:43:35.737Z,98994.50
2019-03-26T14:46:07.079Z,98991.45
2019-03-26T14:48:39.171Z,98993.73
2019-03-26T14:51:10.578Z,99004.17
2019-03-26T14:53:41.908Z,98997.48
2019-03-26T14:56:13.321Z,98998.23
2019-03-26T14:58:44.708Z,99004.48
2019-03-26T15:01:16.158Z,99000.77
2019-03-26T15:03:47.465Z,99005.44
2019-03-26T15:06:18.779Z,99009.10
2019-03-26T15:08:51.514Z,99013.86
2019-03-26T15:11:22.809Z,99008.02
2019-03-26T15:13:54.127Z,99011.32
2019-03-26T15:16:26.572Z,99014.97
2019-03-26T15:18:57.955Z,99011.02
2019-03-26T15:21:29.317Z,99014.47
2019-03-26T15:24:00.653Z,99015.89
2019-03-26T15:26:31.978Z,99013.01
2019-03-26T15:29:03.317Z,99011.91
2019-03-26T15:31:34.624Z,99012.40
2019-03-26T15:34:05.944Z,99012.13
2019-03-26T15:36:37.281Z,99017.08
2019-03-26T15:39:09.313Z,99017.70
2019-03-26T15:41:39.957Z,99006.22
2019-03-26T15:44:10.938Z,99010.66
2019-03-26T15:46:42.196Z,99012.95
2019-03-26T15:49:13.475Z,99009.94
2019-03-26T15:51:44.795Z,99010.86
2019-03-26T15:54:16.197Z,99016.11
2019-03-26T15:56:47.539Z,99017.04
2019-03-26T15:59:18.922Z,99022.00
2019-03-26T16:01:51.302Z,99032.73
2019-03-26T16:04:22.649Z,99043.00
2019-03-26T16:06:53.949Z,99037.48
2019-03-26T16:09:25.273Z,99038.02
2019-03-26T16:11:56.645Z,99052.50
2019-03-26T16:14:28.361Z,99049.49
2019-03-26T16:16:59.641Z,99052.60
2019-03-26T16:19:32.848Z,99066.52
2019-03-26T16:22:06.471Z,99070.77
2019-03-26T16:24:39.874Z,99070.23
2019-03-26T16:27:12.667Z,99075.46
2019-03-26T16:29:44.049Z,99091.68
2019-03-26T16:32:15.314Z,99088.80
2019-03-26T16:34:46.599Z,99093.36
2019-03-26T16:37:18.085Z,99089.41
2019-03-26T16:39:49.423Z,99095.40
2019-03-26T16:42:20.806Z,99096.33
2019-03-26T16:44:52.136Z,99102.94
2019-03-26T16:47:23.466Z,99098.98
2019-03-26T16:49:54.817Z,99098.80
2019-03-26T16:52:26.708Z,99111.34
2019-03-26T16:54:58.328Z,99113.22
2019-03-26T16:57:29.727Z,99114.09
2019-03-26T17:00:01.075Z,99114.30
2019-03-26T17:02:34.094Z,99114.81
2019-03-26T17:05:06.537Z,99117.87
2019-03-26T17:07:37.799Z,99117.56
2019-03-26T17:10:09.204Z,99130.78
2019-03-26T17:12:40.525Z,99135.34
2019-03-26T17:15:11.848Z,99130.03
2019-03-26T17:17:43.128Z,99137.13
2019-03-26T17:20:14.558Z,99132.41
2019-03-26T17:22:45.949Z,99142.69
2019-03-26T17:25:17.324Z,99146.95
2019-03-26T17:27:49.174Z,99142.16
2019-03-26T17:30:20.411Z,99142.22
2019-03-26T17:32:51.796Z,99147.83
2019-03-26T17:35:23.094Z,99146.23
2019-03-26T17:37:59.810Z,99150.28
2019-03-26T17:40:27.557Z,99148.97
2019-03-26T17:42:58.879Z,99155.94
2019-03-26T17:45:30.159Z,99161.22
2019-03-26T17:48:01.498Z,99159.69
2019-03-26T17:50:32.847Z,99163.22
2019-03-26T17:53:04.157Z,99165.73
2019-03-26T17:55:35.476Z,99165.73
2019-03-26T17:58:06.847Z,99167.83
2019-03-26T18:00:40.995Z,99163.51
2019-03-26T18:03:25.753Z,99168.59
2019-03-26T18:05:45.437Z,99172.22
2019-03-26T18:08:16.747Z,99166.60
2019-03-26T18:10:48.113Z,99170.78
2019-03-26T18:13:19.490Z,99164.61
2019-03-26T18:15:50.901Z,99167.91
2019-03-26T18:18:23.669Z,99165.83
2019-03-26T18:20:54.942Z,99165.95
2019-03-26T18:23:26.365Z,99162.63
2019-03-26T18:25:57.687Z,99158.47
2019-03-26T18:28:29.092Z,99164.09
2019-03-26T18:31:00.493Z,99162.34
2019-03-26T18:33:31.915Z,99161.94
2019-03-26T18:36:03.168Z,99164.66
2019-03-26T18:38:34.584Z,99158.52
2019-03-26T18:41:05.993Z,99168.13
2019-03-26T18:43:37.393Z,99164.30
2019-03-26T18:46:08.838Z,99161.02
2019-03-26T18:48:41.649Z,99161.45
2019-03-26T18:51:13.180Z,99162.73
2019-03-26T18:53:44.572Z,99161.21
2019-03-26T18:56:16.009Z,99163.97
2019-03-26T18:58:47.379Z,99171.13
2019-03-26T19:01:18.767Z,99166.42
2019-03-26T19:03:50.093Z,99158.04
2019-03-26T19:06:21.420Z,99163.48
2019-03-26T19:08:53.588Z,99163.37
2019-03-26T19:11:24.916Z,99168.17
2019-03-26T19:13:56.237Z,99170.04
2019-03-26T19:16:27.610Z,99160.00
2019-03-26T19:18:58.971Z,99164.03
2019-03-26T19:21:30.324Z,99165.06
2019-03-26T19:24:04.624Z,99160.86
2019-03-26T19:26:36.293Z,99170.08
2019-03-26T19:29:07.694Z,99171.36
2019-03-26T19:31:39.101Z,99163.90
2019-03-26T19:34:10.471Z,99169.72
2019-03-26T19:36:41.778Z,99168.56
2019-03-26T19:39:13.122Z,99170.87
2019-03-26T19:41:44.432Z,99167.64
2019-03-26T19:44:15.758Z,99166.12
2019-03-26T19:46:47.174Z,99165.91
2019-03-26T19:49:18.430Z,99168.69
2019-03-26T19:51:49.754Z,99169.41
2019-03-26T19:54:21.134Z,99174.67
2019-03-26T19:56:52.546Z,99180.48
2019-03-26T19:59:23.892Z,99172.47
2019-03-26T20:01:55.251Z,99169.50
2019-03-26T20:04:26.723Z,99177.16
2019-03-26T20:06:58.132Z,99174.67
2019-03-26T20:09:29.462Z,99176.78
2019-03-26T20:12:00.772Z,99171.63
2019-03-26T20:14:33.776Z,99173.36
2019-03-26T20:17:05.084Z,99174.67
2019-03-26T20:19:36.515Z,99183.09
2019-03-26T20:22:08.126Z,99179.67
2019-03-26T20:24:40.504Z,99185.59
2019-03-26T20:27:11.873Z,99179.07
2019-03-26T20:29:43.170Z,99185.30
2019-03-26T20:32:14.503Z,99184.58
2019-03-26T20:34:45.887Z,99183.38
2019-03-26T20:37:17.425Z,99180.94
2019-03-26T20:39:48.741Z,99176.59
2019-03-26T20:42:20.181Z,99177.45
2019-03-26T20:44:51.514Z,99183.58
2019-03-26T20:47:22.904Z,99182.95
2019-03-26T20:49:54.268Z,99180.34
2019-03-26T20:52:25.599Z,99188.51
2019-03-26T20:54:56.922Z,99196.39
2019-03-26T20:57:28.298Z,99193.70
2019-03-26T20:59:59.608Z,99193.73
2019-03-26T21:02:30.965Z,99198.08
2019-03-26T21:05:02.388Z,99203.78
2019-03-26T21:07:33.701Z,99201.56
2019-03-26T21:10:06.433Z,99203.51
2019-03-26T21:12:37.844Z,99208.97
2019-03-26T21:15:09.946Z,99201.37
2019-03-26T21:17:41.344Z,99209.15
2019-03-26T21:20:12.692Z,99210.86
2019-03-26T21:22:44.079Z,99209.38
2019-03-26T21:25:15.441Z,99215.83
2019-03-26T21:27:47.072Z,99208.23
2019-03-26T21:30:18.393Z,99206.09
2019-03-26T21:32:49.773Z,99210.55
2019-03-26T21:35:21.171Z,99215.63
2019-03-26T21:37:52.536Z,99216.11
2019-03-26T21:40:23.911Z,99214.11
2019-03-26T21:42:55.250Z,99218.30
2019-03-26T21:45:36.769Z,99215.31
2019-03-26T21:48:08.223Z,99213.67
2019-03-26T21:50:39.584Z,99209.94
2019-03-26T21:53:10.932Z,99207.98
2019-03-26T21:55:42.107Z,99209.77
2019-03-26T21:58:13.500Z,99205.80
2019-03-26T22:00:44.923Z,99200.02
2019-03-26T22:03:16.252Z,99206.02
2019-03-26T22:05:48.121Z,99204.34
2019-03-26T22:08:19.816Z,99206.69
2019-03-26T22:10:51.194Z,99198.03
2019-03-26T22:13:22.525Z,99192.87
2019-03-26T22:15:53.810Z,99195.45
2019-03-26T22:18:26.606Z,99203.28
2019-03-26T22:20:58.047Z,99197.84
2019-03-26T22:23:29.423Z,99204.20
2019-03-26T22:26:00.735Z,99210.69
2019-03-26T22:28:31.986Z,99212.71
2019-03-26T22:31:03.398Z,99206.19
2019-03-26T22:33:34.767Z,99217.70
2019-03-26T22:36:06.165Z,99211.55
2019-03-26T22:38:37.470Z,99216.70
2019-03-26T22:41:08.809Z,99219.25
2019-03-26T22:43:41.279Z,99223.59
2019-03-26T22:46:12.596Z,99204.91
2019-03-26T22:48:43.967Z,99218.59
2019-03-26T22:51:15.365Z,99214.14
2019-03-26T22:53:46.639Z,99209.62
2019-03-26T22:56:17.957Z,99202.61
2019-03-26T22:58:49.395Z,99203.94
2019-03-26T23:01:20.699Z,99203.63
2019-03-26T23:03:51.999Z,99206.47
2019-03-26T23:06:23.342Z,99205.94
2019-03-26T23:08:54.620Z,99222.94
2019-03-26T23:11:25.887Z,99212.78
2019-03-26T23:13:57.209Z,99206.28
2019-03-26T23:16:28.515Z,99207.30
2019-03-26T23:18:59.893Z,99210.63
2019-03-26T23:21:31.259Z,99212.63
2019-03-26T23:24:02.574Z,99214.27
2019-03-26T23:26:34.933Z,99208.10
2019-03-26T23:29:08.028Z,99203.75
2019-03-26T23:31:39.286Z,99198.94
2019-03-26T23:34:10.776Z,99200.58
2019-03-26T23:36:42.086Z,99201.37
2019-03-26T23:39:13.347Z,99199.22
2019-03-26T23:41:44.720Z,99198.77
2019-03-26T23:44:25.687Z,99186.27
2019-03-26T23:46:48.995Z,99185.92
2019-03-26T23:49:20.370Z,99182.25
2019-03-26T23:51:51.757Z,99183.25
2019-03-26T23:54:23.084Z,99190.70
2019-03-26T23:56:54.332Z,99183.54
2019-03-26T23:59:25.510Z,99189.88
